Time;durP1;ratioP1;P1;durP2;ratioP2;P2;SDS_P1;SDS_P2;PMS_P1;PMS_P2;Temp;Humidity;BMP_temperature;BMP_pressure;BME280_temperature;BME280_humidity;BME280_pressure;Samples;Min_cycle;Max_cycle;Signal;HPM_P1;HPM_P2
2022/05/12 00:00:21;;;;;;;3.30;3.00;;;;;;;19.80;61.88;98465.47;5117169;27;40412;-77
2022/05/12 00:02:49;;;;;;;3.37;3.00;;;;;;;19.74;61.14;98477.72;5133600;27;42509;-76
2022/05/12 00:05:18;;;;;;;3.50;3.17;;;;;;;19.63;61.68;98465.44;5134839;27;42588;-75
2022/05/12 00:07:46;;;;;;;3.17;2.83;;;;;;;19.67;60.95;98482.06;5135606;27;43263;-74
2022/05/12 00:10:17;;;;;;;3.40;3.10;;;;;;;19.64;61.23;98494.00;5134638;27;40915;-74
2022/05/12 00:12:48;;;;;;;3.13;2.83;;;;;;;19.55;61.78;98461.88;5133200;27;41536;-75
2022/05/12 00:15:21;;;;;;;3.67;3.37;;;;;;;19.62;62.21;98479.88;5135977;27;43487;-77
2022/05/12 00:17:49;;;;;;;3.60;2.97;;;;;;;19.60;61.92;98481.88;5117249;27;41222;-74
2022/05/12 00:20:19;;;;;;;3.03;2.80;;;;;;;19.58;61.13;98481.19;5135604;27;39897;-75
2022/05/12 00:22:47;;;;;;;3.27;2.97;;;;;;;19.58;61.84;98483.88;5134155;27;42013;-77
2022/05/12 00:25:17;;;;;;;3.03;2.73;;;;;;;19.57;61.52;98492.94;5135544;27;43385;-75
2022/05/12 00:27:46;;;;;;;3.13;2.93;;;;;;;19.56;61.77;98490.41;5116927;27;41914;-73
2022/05/12 00:30:14;;;;;;;3.40;2.67;;;;;;;19.54;61.66;98501.31;5134177;27;40989;-75
2022/05/12 00:32:44;;;;;;;3.13;2.83;;;;;;;19.55;61.48;98499.47;5116512;27;41510;-76
2022/05/12 00:35:14;;;;;;;3.70;2.57;;;;;;;19.53;61.76;98498.81;5118058;27;41755;-77
2022/05/12 00:37:43;;;;;;;2.97;2.77;;;;;;;19.52;62.29;98489.91;5113972;28;42946;-76
2022/05/12 00:40:11;;;;;;;3.83;2.80;;;;;;;19.50;61.54;98499.97;5113549;28;41158;-76
2022/05/12 00:42:54;;;;;;;2.43;2.23;;;;;;;19.42;61.64;98499.03;5112742;28;42718;-74
2022/05/12 00:45:23;;;;;;;2.93;2.50;;;;;;;19.40;61.60;98504.59;5110207;28;43511;-75
2022/05/12 00:47:51;;;;;;;2.53;2.33;;;;;;;19.36;61.51;98500.53;5095942;28;42247;-74
2022/05/12 00:50:21;;;;;;;4.20;3.13;;;;;;;19.39;61.34;98510.97;5114822;28;40003;-76
2022/05/12 00:52:48;;;;;;;3.47;2.67;;;;;;;19.37;61.70;98507.59;5095134;28;42505;-77
2022/05/12 00:55:21;;;;;;;2.90;2.70;;;;;;;19.35;62.11;98512.28;5075769;28;42625;-75
2022/05/12 00:57:52;;;;;;;4.00;2.77;;;;;;;19.28;62.67;98497.81;5093058;28;42411;-76
2022/05/12 01:00:23;;;;;;;3.17;2.67;;;;;;;19.24;62.36;98496.44;5075558;28;38700;-76
2022/05/12 01:02:54;;;;;;;3.73;3.43;;;;;;;19.31;62.71;98518.94;5073964;28;43517;-74
2022/05/12 01:05:24;;;;;;;4.10;2.90;;;;;;;19.26;62.59;98513.22;5076011;28;41383;-74
2022/05/12 01:07:55;;;;;;;3.63;2.70;;;;;;;19.26;63.15;98515.91;5075457;28;42223;-75
2022/05/12 01:10:23;;;;;;;2.93;2.67;;;;;;;19.22;62.61;98519.91;5075572;28;39447;-76
2022/05/12 01:12:52;;;;;;;2.70;2.50;;;;;;;19.19;62.83;98521.06;5093557;28;41734;-77
2022/05/12 01:15:25;;;;;;;2.70;2.50;;;;;;;19.16;62.75;98516.03;5092215;28;43616;-74
2022/05/12 01:18:02;;;;;;;2.60;2.40;;;;;;;19.15;62.98;98519.72;5108228;28;42507;-75
2022/05/12 01:20:29;;;;;;;2.57;2.37;;;;;;;19.17;63.07;98530.28;5092672;28;40034;-76
2022/05/12 01:23:01;;;;;;;2.63;2.30;;;;;;;19.14;62.57;98533.28;5093320;28;41669;-76
2022/05/12 01:25:31;;;;;;;3.03;2.83;;;;;;;19.12;62.60;98529.91;5089222;28;42644;-76
2022/05/12 01:27:59;;;;;;;2.80;2.60;;;;;;;19.07;63.62;98521.50;5092061;28;41641;-76
2022/05/12 01:30:27;;;;;;;3.17;2.83;;;;;;;19.10;62.95;98530.06;5092172;28;40648;-75
2022/05/12 01:32:55;;;;;;;2.63;2.43;;;;;;;19.08;62.81;98539.28;5074993;28;44083;-76
2022/05/12 01:35:25;;;;;;;2.60;2.40;;;;;;;19.07;63.10;98543.81;5126476;27;43734;-75
2022/05/12 01:37:53;;;;;;;2.73;2.50;;;;;;;19.00;62.81;98540.91;5132863;27;42401;-75
2022/05/12 01:40:22;;;;;;;2.63;2.43;;;;;;;19.07;62.56;98565.28;5115724;27;41902;-76
2022/05/12 01:42:52;;;;;;;2.33;2.17;;;;;;;19.05;62.88;98555.69;5132668;27;41972;-74
2022/05/12 01:45:23;;;;;;;2.90;2.60;;;;;;;18.89;62.63;98533.13;5132770;27;41837;-76
2022/05/12 01:47:51;;;;;;;3.00;2.80;;;;;;;19.01;62.37;98564.06;5125063;27;42337;-74
2022/05/12 01:50:19;;;;;;;2.53;2.23;;;;;;;19.01;62.32;98566.75;5095248;28;39900;-74
2022/05/12 01:52:47;;;;;;;3.50;2.60;;;;;;;18.98;62.62;98564.38;5111335;28;41778;-75
2022/05/12 01:55:17;;;;;;;2.43;2.27;;;;;;;18.96;63.31;98558.31;5094984;28;43232;-75
2022/05/12 01:57:45;;;;;;;2.70;2.50;;;;;;;18.99;62.53;98568.75;5098479;28;41970;-77
2022/05/12 02:00:18;;;;;;;2.77;2.50;;;;;;;18.96;62.50;98569.06;5091557;28;40767;-76
2022/05/12 02:02:46;;;;;;;3.30;3.00;;;;;;;18.95;62.38;98570.06;5091611;28;41702;-76
2022/05/12 02:05:14;;;;;;;2.60;2.20;;;;;;;18.88;62.37;98560.09;5091588;28;43256;-75
2022/05/12 02:07:45;;;;;;;3.80;2.80;;;;;;;18.91;62.35;98571.38;5092093;28;42061;-74
2022/05/12 02:10:16;;;;;;;2.50;2.30;;;;;;;18.91;62.40;98576.75;5090943;28;39021;-77
2022/05/12 02:12:44;;;;;;;2.80;2.60;;;;;;;18.90;62.36;98580.44;5090808;28;42745;-75
2022/05/12 02:15:14;;;;;;;3.97;3.03;;;;;;;18.86;62.31;98581.72;5074496;28;41727;-75
2022/05/12 02:17:42;;;;;;;3.00;2.77;;;;;;;18.86;62.47;98572.84;5123266;27;42020;-75
2022/05/12 02:20:12;;;;;;;3.33;2.60;;;;;;;18.85;62.39;98577.34;5133846;27;41990;-76
2022/05/12 02:22:39;;;;;;;3.07;2.53;;;;;;;18.84;62.67;98586.41;5115210;27;42045;-77
2022/05/12 02:25:08;;;;;;;3.70;2.43;;;;;;;18.82;62.21;98591.06;5132358;27;43812;-76
2022/05/12 02:27:37;;;;;;;2.40;2.20;;;;;;;18.79;62.17;98593.25;5132162;27;43271;-76
2022/05/12 02:30:05;;;;;;;2.60;2.40;;;;;;;18.74;62.15;98593.69;5118210;27;40501;-77
2022/05/12 02:32:34;;;;;;;3.43;2.60;;;;;;;18.76;62.62;98599.75;5112646;28;41529;-75
2022/05/12 02:35:02;;;;;;;2.80;2.60;;;;;;;18.79;62.63;98603.97;5111648;28;42554;-74
2022/05/12 02:37:29;;;;;;;3.80;2.43;;;;;;;18.76;62.50;98613.16;5093894;28;41215;-76
2022/05/12 02:39:57;;;;;;;2.67;2.47;;;;;;;18.78;62.11;98624.59;5111559;28;39228;-76
2022/05/12 02:42:25;;;;;;;2.73;2.50;;;;;;;18.76;61.96;98620.38;5112232;27;42002;-75
2022/05/12 02:44:52;;;;;;;2.10;1.90;;;;;;;18.67;62.23;98606.00;5111434;28;42494;-76
2022/05/12 02:47:20;;;;;;;2.37;2.17;;;;;;;18.75;61.78;98619.53;5112246;28;43273;-75
2022/05/12 02:49:49;;;;;;;2.80;2.50;;;;;;;18.75;61.61;98630.25;5111757;28;40062;-76
2022/05/12 02:52:17;;;;;;;2.70;2.50;;;;;;;18.72;62.10;98630.56;5111176;28;41576;-74
2022/05/12 02:54:45;;;;;;;2.60;2.40;;;;;;;18.69;62.20;98636.22;5093993;28;42134;-75
2022/05/12 02:57:13;;;;;;;4.07;2.30;;;;;;;18.69;61.75;98633.53;5110951;28;42454;-77
2022/05/12 02:59:41;;;;;;;3.97;2.40;;;;;;;18.75;61.28;98646.34;5094645;27;39872;-75
2022/05/12 03:02:09;;;;;;;2.90;2.63;;;;;;;18.63;61.51;98620.75;5112495;27;41800;-74
2022/05/12 03:04:36;;;;;;;2.60;2.20;;;;;;;18.80;61.23;98645.88;5112324;28;42881;-76
2022/05/12 03:07:05;;;;;;;3.27;2.30;;;;;;;18.81;61.30;98651.09;5128695;27;42352;-77
2022/05/12 03:09:33;;;;;;;2.13;2.03;;;;;;;18.72;61.23;98643.13;5114464;27;40892;-77
2022/05/12 03:12:01;;;;;;;4.30;2.50;;;;;;;18.82;61.00;98663.50;5132710;27;42574;-75
2022/05/12 03:14:29;;;;;;;2.30;2.10;;;;;;;18.79;61.20;98666.50;5114187;27;42786;-76
2022/05/12 03:16:56;;;;;;;3.87;2.40;;;;;;;18.79;61.04;98663.00;5114221;27;42274;-76
2022/05/12 03:19:25;;;;;;;3.07;2.40;;;;;;;18.80;61.23;98673.56;5114326;27;40062;-75
2022/05/12 03:21:53;;;;;;;3.60;2.73;;;;;;;18.80;60.97;98676.22;5131192;27;42686;-76
2022/05/12 03:24:22;;;;;;;2.80;2.07;;;;;;;18.81;60.79;98680.59;5113229;27;44302;-75
2022/05/12 03:26:50;;;;;;;2.30;2.10;;;;;;;18.80;60.74;98697.69;5114269;27;41217;-75
2022/05/12 03:29:18;;;;;;;2.20;2.00;;;;;;;18.69;60.67;98683.66;5131382;27;40289;-77
2022/05/12 03:31:46;;;;;;;2.37;2.17;;;;;;;18.69;60.28;98695.22;5130130;27;41418;-74
2022/05/12 03:34:14;;;;;;;2.27;2.07;;;;;;;18.68;60.81;98698.91;5131193;27;42696;-75
2022/05/12 03:36:43;;;;;;;2.07;1.87;;;;;;;18.62;60.56;98708.41;5113953;27;41389;-77
2022/05/12 03:39:10;;;;;;;2.63;2.43;;;;;;;18.57;60.42;98717.84;5131504;27;41156;-75
2022/05/12 03:41:39;;;;;;;3.43;2.03;;;;;;;18.52;60.63;98710.28;5111764;27;40663;-76
2022/05/12 03:46:53;;;;;;;2.10;1.90;;;;;;;18.43;60.99;98718.34;5073113;28;41288;-74
2022/05/12 03:49:21;;;;;;;2.93;2.57;;;;;;;18.34;61.07;98711.22;5090086;28;39976;-74
2022/05/12 03:51:48;;;;;;;2.50;2.30;;;;;;;18.38;61.35;98724.19;5090185;28;40804;-76
2022/05/12 03:54:16;;;;;;;3.40;2.30;;;;;;;18.35;61.34;98720.94;5091495;28;42920;-77
2022/05/12 03:56:45;;;;;;;3.50;2.40;;;;;;;18.37;61.35;98727.00;5089432;28;42980;-76
2022/05/12 03:59:13;;;;;;;2.50;2.30;;;;;;;18.37;61.13;98737.72;5089065;28;40908;-77
2022/05/12 04:01:40;;;;;;;2.43;2.23;;;;;;;18.38;61.11;98742.94;5072755;28;40670;-75
2022/05/12 04:04:09;;;;;;;2.67;2.37;;;;;;;18.34;61.33;98743.38;5089215;28;43352;-75
2022/05/12 04:06:37;;;;;;;2.90;2.30;;;;;;;18.36;61.31;98747.63;5090707;28;42429;-75
2022/05/12 04:09:05;;;;;;;2.40;2.20;;;;;;;18.42;61.63;98754.22;5089553;28;40720;-78
2022/05/12 04:11:32;;;;;;;2.47;2.27;;;;;;;18.46;61.84;98760.97;5090583;28;41633;-77
2022/05/12 04:14:01;;;;;;;2.50;2.10;;;;;;;18.50;61.41;98768.59;5092457;27;42650;-76
2022/05/12 04:16:30;;;;;;;2.50;2.30;;;;;;;18.49;61.00;98768.72;5131410;27;43085;-76
2022/05/12 04:18:58;;;;;;;2.90;2.33;;;;;;;18.58;61.18;98783.97;5130548;27;38908;-76
2022/05/12 04:21:26;;;;;;;2.30;2.00;;;;;;;18.61;60.79;98783.66;5130138;27;41778;-77
2022/05/12 04:23:54;;;;;;;3.00;2.13;;;;;;;18.61;61.41;98778.31;5112452;27;43056;-77
2022/05/12 04:26:22;;;;;;;2.13;1.93;;;;;;;18.65;61.29;98791.28;5130780;27;42421;-76
2022/05/12 04:28:49;;;;;;;3.73;2.67;;;;;;;18.67;61.01;98786.59;5131886;27;40031;-77
2022/05/12 04:31:18;;;;;;;3.43;2.20;;;;;;;18.67;60.89;98789.28;5127187;27;41041;-77
2022/05/12 04:36:31;;;;;;;2.37;2.17;;;;;;;18.66;61.01;98802.84;5108306;28;42396;-75
2022/05/12 04:38:59;;;;;;;2.23;2.07;;;;;;;18.66;61.04;98800.19;5113866;28;40334;-75
2022/05/12 04:41:27;;;;;;;2.43;2.23;;;;;;;18.66;60.66;98805.53;5094912;28;41739;-75
2022/05/12 04:43:55;;;;;;;2.57;2.17;;;;;;;18.69;60.68;98815.94;5112520;28;42053;-76
2022/05/12 04:46:24;;;;;;;2.70;2.00;;;;;;;18.78;60.44;98822.28;5113997;28;42537;-74
2022/05/12 04:48:52;;;;;;;3.07;1.90;;;;;;;18.82;60.07;98824.50;5115788;27;40978;-75
2022/05/12 04:51:21;;;;;;;2.40;2.20;;;;;;;18.89;60.16;98831.00;5129406;27;40831;-77
2022/05/12 04:53:48;;;;;;;2.57;1.97;;;;;;;18.98;59.62;98830.09;5095671;28;41836;-75
2022/05/12 04:56:16;;;;;;;3.80;2.10;;;;;;;19.07;59.68;98832.84;5112932;28;42190;-77
2022/05/12 04:58:43;;;;;;;2.20;1.97;;;;;;;19.17;59.06;98837.16;5098534;28;43402;-76
2022/05/12 05:01:11;;;;;;;2.00;1.90;;;;;;;19.27;58.86;98850.56;5098072;27;42672;-74
2022/05/12 05:03:40;;;;;;;4.67;2.10;;;;;;;19.38;58.89;98847.66;5132684;27;43682;-77
2022/05/12 05:06:09;;;;;;;2.13;1.93;;;;;;;19.51;58.15;98855.38;5133230;27;41408;-75
2022/05/12 05:08:37;;;;;;;2.30;1.80;;;;;;;19.62;58.19;98861.38;5133583;27;40064;-75
2022/05/12 05:11:06;;;;;;;2.43;2.23;;;;;;;19.79;57.78;98873.09;5126403;27;43264;-76
2022/05/12 05:13:34;;;;;;;2.00;1.90;;;;;;;19.94;57.44;98873.41;5134581;27;43720;-75
2022/05/12 05:16:02;;;;;;;2.23;1.70;;;;;;;20.11;57.29;98882.47;5133559;27;42347;-77
2022/05/12 05:18:30;;;;;;;4.60;2.10;;;;;;;20.22;56.18;98880.38;5091843;28;39669;-76
2022/05/12 05:20:59;;;;;;;2.77;1.70;;;;;;;20.31;55.79;98867.81;5091863;28;41490;-76
2022/05/12 05:23:26;;;;;;;1.87;1.77;;;;;;;20.39;55.64;98866.09;5082711;28;43074;-77
2022/05/12 05:25:54;;;;;;;1.70;1.60;;;;;;;20.68;55.14;98903.41;5093559;28;42181;-76
2022/05/12 05:28:22;;;;;;;2.00;1.60;;;;;;;20.80;55.26;98899.44;5092317;28;40271;-74
2022/05/12 05:30:51;;;;;;;2.17;1.80;;;;;;;20.90;55.21;98901.19;5092342;28;41629;-75
2022/05/12 05:33:20;;;;;;;1.67;1.57;;;;;;;21.13;54.85;98916.66;5092801;28;43908;-73
2022/05/12 05:35:47;;;;;;;2.33;1.73;;;;;;;21.30;53.95;98919.41;5105612;28;42214;-74
2022/05/12 05:38:16;;;;;;;4.23;1.50;;;;;;;21.34;53.41;98910.00;5113400;28;40935;-74
2022/05/12 05:40:44;;;;;;;1.97;1.77;;;;;;;21.66;53.30;98938.91;5113484;27;41799;-74
2022/05/12 05:43:12;;;;;;;2.03;1.53;;;;;;;21.88;52.74;98950.97;5112724;27;43754;-74
2022/05/12 05:45:40;;;;;;;1.57;1.47;;;;;;;22.02;52.24;98953.00;5112024;28;44482;-75
2022/05/12 05:48:08;;;;;;;2.13;1.90;;;;;;;22.02;52.38;98939.53;5112589;27;39929;-75
2022/05/12 05:53:26;;;;;;;2.00;1.70;;;;;;;22.16;52.57;98968.53;5111235;28;43607;-74
2022/05/12 05:55:56;;;;;;;1.70;1.60;;;;;;;22.15;52.51;98969.56;5108152;28;43515;-76
2022/05/12 05:58:24;;;;;;;2.03;1.70;;;;;;;22.14;52.60;98968.72;5106493;28;40383;-75
2022/05/12 06:00:54;;;;;;;1.40;1.30;;;;;;;22.15;52.27;98980.34;5111016;28;42970;-75
2022/05/12 06:03:22;;;;;;;2.03;1.60;;;;;;;22.17;52.62;98981.88;5111410;28;43791;-75
2022/05/12 06:05:50;;;;;;;1.50;1.40;;;;;;;22.17;52.78;98989.13;5111213;28;42265;-75
2022/05/12 06:08:20;;;;;;;2.20;2.00;;;;;;;21.95;52.62;98957.38;5113126;28;39964;-76
2022/05/12 06:10:49;;;;;;;1.83;1.53;;;;;;;22.08;52.90;98990.97;5111557;28;40650;-75
2022/05/12 06:13:17;;;;;;;1.57;1.40;;;;;;;22.01;53.01;99000.72;5094447;28;44061;-75
2022/05/12 06:15:45;;;;;;;1.67;1.40;;;;;;;21.61;53.18;98944.81;5112120;28;43037;-75
2022/05/12 06:18:15;;;;;;;1.60;1.40;;;;;;;21.90;53.16;99010.94;5111504;28;38910;-76
2022/05/12 06:20:43;;;;;;;1.60;1.50;;;;;;;21.88;52.56;99011.13;5112920;27;41863;-75
2022/05/12 06:23:13;;;;;;;1.53;1.43;;;;;;;21.92;52.65;99008.91;5111109;28;43725;-75
2022/05/12 06:25:41;;;;;;;2.57;1.30;;;;;;;21.99;52.63;99008.16;5111370;28;42155;-75
2022/05/12 06:28:11;;;;;;;2.60;1.50;;;;;;;22.08;52.97;99009.00;5112775;28;42038;-76
2022/05/12 06:30:39;;;;;;;1.70;1.60;;;;;;;22.13;52.84;99012.88;5112766;28;41928;-75
2022/05/12 06:33:07;;;;;;;1.57;1.17;;;;;;;22.13;52.75;99012.06;5112562;28;43765;-75
2022/05/12 06:35:35;;;;;;;1.30;1.20;;;;;;;22.18;52.62;99012.38;5094467;28;41294;-75
2022/05/12 06:38:03;;;;;;;1.20;1.10;;;;;;;22.25;51.95;99018.00;5094130;28;38975;-75
2022/05/12 06:40:30;;;;;;;2.10;1.30;;;;;;;22.38;51.78;99024.56;5111407;28;42118;-75
2022/05/12 06:42:58;;;;;;;1.83;1.27;;;;;;;22.62;51.36;99026.47;5093651;28;41992;-75
2022/05/12 06:45:28;;;;;;;1.20;1.10;;;;;;;22.74;51.27;99030.50;5094160;28;41601;-75
2022/05/12 06:47:56;;;;;;;1.43;1.17;;;;;;;22.91;51.06;99034.06;5111097;28;38681;-75
2022/05/12 06:50:27;;;;;;;1.93;1.20;;;;;;;23.13;51.15;99025.25;5111038;28;42417;-75
2022/05/12 06:52:55;;;;;;;1.67;1.23;;;;;;;23.59;51.04;99030.94;5111119;28;43083;-75
2022/05/12 06:55:24;;;;;;;2.53;1.10;;;;;;;24.03;50.21;99033.94;5110972;28;41677;-75
2022/05/12 06:57:52;;;;;;;2.30;1.40;;;;;;;24.36;48.27;99050.03;5112177;28;39914;-75
2022/05/12 07:00:20;;;;;;;1.40;1.20;;;;;;;24.59;47.29;99057.16;5110892;27;40640;-75
2022/05/12 07:02:51;;;;;;;1.30;1.20;;;;;;;24.88;46.62;99060.97;5112115;28;42829;-76
2022/05/12 07:05:22;;;;;;;2.20;1.20;;;;;;;24.98;46.86;99050.75;5111996;28;42078;-76
2022/05/12 07:07:50;;;;;;;1.23;1.13;;;;;;;25.19;46.36;99067.19;5095196;28;39116;-76
2022/05/12 07:10:20;;;;;;;1.10;1.00;;;;;;;25.24;46.51;99067.44;5115081;27;41835;-76
2022/05/12 07:12:48;;;;;;;1.07;1.07;;;;;;;25.16;47.00;99069.41;5095321;28;44461;-76
2022/05/12 07:15:16;;;;;;;2.53;1.40;;;;;;;25.01;45.44;99050.41;5114516;28;42487;-76
2022/05/12 07:17:46;;;;;;;1.93;1.17;;;;;;;25.41;45.41;99079.81;5112693;28;41469;-76
2022/05/12 07:28:33;;;;;;;1.73;1.10;;;;;;;26.48;43.24;99088.41;5111658;28;39734;-76
2022/05/12 07:31:01;;;;;;;1.27;1.10;;;;;;;26.76;42.95;99086.63;5110674;28;41912;-76
2022/05/12 07:33:29;;;;;;;2.13;1.33;;;;;;;27.03;43.11;99095.06;5111767;28;43516;-76
2022/05/12 07:36:00;;;;;;;1.87;1.30;;;;;;;27.15;42.40;99086.19;5110654;28;42462;-76
2022/05/12 07:38:27;;;;;;;1.63;1.13;;;;;;;27.34;42.91;99091.97;5093591;28;40217;-76
2022/05/12 07:40:55;;;;;;;1.37;1.27;;;;;;;27.46;41.18;99104.84;5111643;28;41550;-76
2022/05/12 07:43:23;;;;;;;1.40;1.10;;;;;;;27.65;40.76;99114.22;5109842;28;42670;-76
2022/05/12 07:45:51;;;;;;;3.07;1.43;;;;;;;27.85;40.71;99093.41;5110351;28;42082;-76
2022/05/12 07:48:19;;;;;;;1.30;1.20;;;;;;;28.30;39.53;99115.66;5110455;28;39894;-76
2022/05/12 07:50:47;;;;;;;1.23;1.13;;;;;;;28.60;38.81;99119.75;5110597;28;41699;-76
2022/05/12 07:53:16;;;;;;;1.87;1.50;;;;;;;28.79;38.71;99123.63;5111503;28;43764;-76
2022/05/12 07:55:44;;;;;;;1.60;1.50;;;;;;;28.92;38.66;99129.09;5111531;28;43187;-76
2022/05/12 07:58:12;;;;;;;3.37;1.63;;;;;;;29.02;38.47;99123.25;5109964;28;38916;-76
2022/05/12 08:00:41;;;;;;;1.87;1.33;;;;;;;29.43;38.19;99125.78;5093002;28;41099;-77
2022/05/12 08:03:09;;;;;;;2.37;1.17;;;;;;;29.84;37.20;99132.91;5109906;28;42722;-77
2022/05/12 08:05:37;;;;;;;1.27;1.10;;;;;;;30.10;37.22;99138.34;5111395;28;42040;-76
2022/05/12 08:08:06;;;;;;;2.97;1.43;;;;;;;30.32;35.76;99153.38;5093177;28;41387;-76
2022/05/12 08:10:36;;;;;;;1.90;1.10;;;;;;;29.78;36.52;99147.41;5111550;28;41616;-76
2022/05/12 08:13:04;;;;;;;1.70;1.23;;;;;;;29.39;37.40;99146.38;5132469;27;43147;-76
2022/05/12 08:15:32;;;;;;;3.67;1.50;;;;;;;29.77;37.34;99140.28;5135617;27;43178;-76
2022/05/12 08:17:59;;;;;;;3.03;1.30;;;;;;;30.54;35.78;99156.69;5134231;27;40986;-76
2022/05/12 08:20:27;;;;;;;2.03;1.00;;;;;;;31.36;33.68;99172.25;5122852;27;41651;-76
2022/05/12 08:22:55;;;;;;;3.30;1.27;;;;;;;31.87;32.16;99173.13;5092794;28;43041;-76
2022/05/12 08:25:23;;;;;;;1.37;1.10;;;;;;;32.07;31.59;99184.69;5075971;28;44078;-76
2022/05/12 08:27:52;;;;;;;1.43;1.33;;;;;;;32.54;31.71;99185.03;5092887;28;40140;-76
2022/05/12 08:30:19;;;;;;;1.30;1.20;;;;;;;32.51;30.52;99185.53;5094034;28;41735;-76
2022/05/12 08:32:47;;;;;;;1.30;1.20;;;;;;;32.57;30.99;99190.06;5094008;28;42759;-76
2022/05/12 08:35:15;;;;;;;1.53;1.00;;;;;;;31.58;31.31;99189.13;5094146;28;43169;-76
2022/05/12 08:37:42;;;;;;;1.40;1.30;;;;;;;32.06;31.85;99183.03;5092713;28;40551;-76
2022/05/12 08:40:17;;;;;;;3.73;1.50;;;;;;;31.13;32.08;99188.41;5094078;28;41592;-76
2022/05/12 08:42:47;;;;;;;2.30;1.10;;;;;;;31.89;31.58;99191.00;5092099;28;43476;-76
2022/05/12 08:45:19;;;;;;;4.27;1.83;;;;;;;32.08;30.74;99194.59;5092522;28;43279;-77
2022/05/12 08:47:51;;;;;;;1.10;1.00;;;;;;;32.02;31.12;99187.31;5092605;28;40201;-76
2022/05/12 08:50:23;;;;;;;2.10;1.20;;;;;;;31.87;30.96;99190.38;5093033;28;42007;-76
2022/05/12 08:52:54;;;;;;;2.27;1.30;;;;;;;31.84;30.54;99190.00;5092253;28;41789;-76
2022/05/12 08:55:27;;;;;;;2.47;1.00;;;;;;;31.71;30.63;99197.25;5091952;28;42026;-76
2022/05/12 08:57:58;;;;;;;2.13;0.97;;;;;;;31.86;30.12;99198.81;5075260;28;40255;-77
2022/05/12 09:00:31;;;;;;;2.10;1.00;;;;;;;32.08;30.31;99202.81;5090616;28;42795;-76
2022/05/12 09:03:13;;;;;;;1.10;1.00;;;;;;;32.07;30.13;99203.88;5091514;28;43854;-76
2022/05/12 09:05:44;;;;;;;1.60;1.07;;;;;;;32.64;29.53;99213.59;5089280;28;42254;-77
2022/05/12 09:08:21;;;;;;;1.27;1.17;;;;;;;32.27;28.81;99217.44;5113668;27;39946;-77
2022/05/12 09:10:59;;;;;;;1.13;0.90;;;;;;;31.51;29.81;99202.03;5109777;28;41703;-76
2022/05/12 09:13:32;;;;;;;2.17;1.00;;;;;;;30.80;30.54;99199.47;5091847;28;41970;-76
2022/05/12 09:16:11;;;;;;;1.50;1.20;;;;;;;30.27;31.76;99196.09;5092904;28;41200;-79
2022/05/12 09:18:40;;;;;;;2.00;0.77;;;;;;;29.94;32.25;99196.94;5092499;28;39453;-80
2022/05/12 09:21:10;;;;;;;0.93;0.80;;;;;;;29.90;32.07;99194.88;5092390;28;41829;-77
2022/05/12 09:23:39;;;;;;;2.03;0.87;;;;;;;29.84;31.55;99192.97;5091536;28;43699;-79
2022/05/12 09:26:45;;;;;;;0.97;0.90;;;;;;;29.64;32.82;99188.38;5075633;28;43797;-78
2022/05/12 09:29:16;;;;;;;1.83;0.70;;;;;;;29.34;32.59;99197.13;5075395;28;39198;-78
2022/05/12 09:31:48;;;;;;;2.83;0.90;;;;;;;30.01;31.75;99205.19;5075701;28;42037;-78
2022/05/12 09:34:29;;;;;;;1.83;1.00;;;;;;;30.46;30.78;99214.31;5075540;28;43919;-78
2022/05/12 09:36:57;;;;;;;1.70;0.90;;;;;;;31.33;29.55;99212.91;5075863;28;42272;-76
2022/05/12 09:39:36;;;;;;;1.43;0.73;;;;;;;32.29;29.54;99212.53;5093868;28;40016;-80
2022/05/12 09:42:06;;;;;;;1.10;1.10;;;;;;;32.58;28.04;99224.66;5074780;28;42423;-78
2022/05/12 09:44:35;;;;;;;1.70;0.73;;;;;;;32.65;29.00;99217.19;5092175;28;43649;-79
2022/05/12 09:47:08;;;;;;;1.17;1.07;;;;;;;32.81;29.11;99219.34;5093064;28;42415;-77
2022/05/12 09:49:39;;;;;;;2.43;0.83;;;;;;;33.14;28.31;99219.72;5076766;28;20206;-78
2022/05/12 09:52:27;;;;;;;1.33;0.80;;;;;;;33.31;27.80;99219.09;5092158;28;42533;-80
2022/05/12 09:55:17;;;;;;;1.87;0.80;;;;;;;33.57;27.57;99229.69;5092134;28;42796;-76
2022/05/12 09:57:48;;;;;;;0.90;0.90;;;;;;;33.62;26.61;99229.84;5092011;28;42548;-81
2022/05/12 10:00:27;;;;;;;1.20;0.83;;;;;;;34.04;26.95;99227.03;5075088;28;40157;-78
2022/05/12 10:08:46;;;;;;;1.27;0.93;;;;;;;37.31;23.62;99237.84;5100291;28;42104;-78
2022/05/12 10:11:15;;;;;;;1.85;0.90;;;;;;;38.58;22.54;99238.91;5093367;28;40830;-80
2022/05/12 10:13:48;;;;;;;0.88;0.85;;;;;;;39.91;20.94;99243.78;5107118;28;40701;-79
2022/05/12 10:16:20;;;;;;;0.93;0.80;;;;;;;40.99;20.32;99256.34;5091212;28;41996;-80
2022/05/12 10:18:53;;;;;;;0.85;0.85;;;;;;;40.53;20.72;99234.28;5103815;28;43234;-81
2022/05/12 10:21:26;;;;;;;1.63;0.80;;;;;;;39.82;19.94;99246.22;5089912;28;39870;-78
2022/05/12 10:24:04;;;;;;;0.93;0.85;;;;;;;39.04;20.80;99240.00;5088837;28;41387;-76
2022/05/12 10:26:37;;;;;;;1.77;1.00;;;;;;;37.32;22.11;99227.63;5090020;28;42823;-78
2022/05/12 10:29:10;;;;;;;0.77;0.77;;;;;;;35.71;24.00;99225.06;5088695;28;42488;-77
2022/05/12 10:31:47;;;;;;;1.37;0.97;;;;;;;35.11;24.16;99220.09;5074710;28;38919;-77
2022/05/12 10:34:31;;;;;;;1.50;0.90;;;;;;;36.24;22.91;99208.00;5089566;28;42778;-80
2022/05/12 10:37:05;;;;;;;1.48;0.80;;;;;;;37.69;22.63;99209.22;5092745;28;43482;-76
2022/05/12 10:39:44;;;;;;;1.88;1.00;;;;;;;38.94;20.92;99226.06;5091255;28;41361;-78
2022/05/12 10:42:27;;;;;;;0.93;0.70;;;;;;;39.03;19.77;99231.94;5088813;28;40752;-77
2022/05/12 10:45:05;;;;;;;2.25;1.10;;;;;;;38.63;20.60;99233.41;5090794;28;40568;-76
2022/05/12 10:47:53;;;;;;;1.30;1.10;;;;;;;38.41;20.82;99232.72;5090583;28;42761;-78
2022/05/12 10:50:28;;;;;;;1.50;0.82;;;;;;;37.55;21.21;99223.72;5104841;28;42477;-78
2022/05/12 10:53:03;;;;;;;0.82;0.82;;;;;;;37.73;22.47;99212.28;5091127;28;40879;-77
2022/05/12 10:55:38;;;;;;;1.73;0.90;;;;;;;37.63;21.67;99214.94;5089182;28;42467;-78
2022/05/12 10:58:22;;;;;;;1.05;0.80;;;;;;;37.36;22.77;99196.44;5092207;27;41456;-77
2022/05/12 11:01:16;;;;;;;2.07;0.90;;;;;;;37.11;23.37;99185.09;5124547;27;44033;-78
2022/05/12 11:03:48;;;;;;;2.47;0.90;;;;;;;36.80;24.13;99189.47;5094107;28;39632;-78
2022/05/12 11:06:22;;;;;;;1.10;0.80;;;;;;;36.88;22.42;99201.97;5107896;28;42305;-77
2022/05/12 11:08:55;;;;;;;1.07;0.93;;;;;;;36.58;23.13;99191.38;5108165;28;43582;-77
2022/05/12 11:11:27;;;;;;;1.05;0.70;;;;;;;36.73;24.16;99188.81;5110851;28;41126;-77
2022/05/12 11:14:02;;;;;;;1.37;1.10;;;;;;;35.49;22.94;99199.28;5111103;28;38554;-77
2022/05/12 11:16:34;;;;;;;0.97;0.90;;;;;;;34.73;24.28;99178.53;5109510;28;42768;-77
2022/05/12 11:19:07;;;;;;;1.53;1.00;;;;;;;34.17;23.77;99182.81;5111151;28;41678;-78
2022/05/12 11:21:43;;;;;;;0.80;0.80;;;;;;;33.49;24.75;99177.84;5108114;28;43328;-78
2022/05/12 11:24:24;;;;;;;1.37;0.93;;;;;;;32.90;25.21;99167.72;5093897;28;40695;-78
2022/05/12 11:27:31;;;;;;;1.73;0.90;;;;;;;32.40;24.95;99179.72;5110264;28;40828;-77
2022/05/12 11:30:34;;;;;;;2.00;0.80;;;;;;;32.14;26.16;99171.78;5098450;28;42781;-77
2022/05/12 11:33:22;;;;;;;0.83;0.70;;;;;;;31.62;25.98;99170.34;5108549;28;43036;-77
2022/05/12 11:35:52;;;;;;;1.17;0.63;;;;;;;31.70;26.17;99162.72;5109112;28;40808;-76
2022/05/12 11:38:51;;;;;;;1.00;1.00;;;;;;;31.16;26.85;99157.03;5112007;28;41496;-77
2022/05/12 11:41:46;;;;;;;1.47;0.77;;;;;;;31.62;25.82;99165.72;5108884;28;43764;-78
2022/05/12 11:44:38;;;;;;;1.27;0.90;;;;;;;32.03;28.13;99142.38;5084799;28;42990;-77
2022/05/12 11:47:49;;;;;;;0.90;0.80;;;;;;;32.76;25.20;99159.66;5096197;28;38916;-77
2022/05/12 11:50:27;;;;;;;2.40;0.70;;;;;;;32.52;25.34;99155.09;5111202;28;42624;-77
2022/05/12 11:53:03;;;;;;;0.87;0.87;;;;;;;32.32;25.08;99169.06;5097343;28;41839;-77
2022/05/12 11:55:35;;;;;;;1.53;0.90;;;;;;;31.77;25.69;99163.47;5111236;28;41991;-79
2022/05/12 11:58:07;;;;;;;1.97;1.03;;;;;;;34.00;24.81;99157.13;5096933;28;40372;-76
2022/05/12 12:00:58;;;;;;;2.27;1.07;;;;;;;37.03;21.79;99177.28;5107309;28;41147;-77
2022/05/12 12:04:00;;;;;;;1.13;0.90;;;;;;;37.61;20.64;99189.47;5076757;28;41600;-77
2022/05/12 12:06:59;;;;;;;1.00;0.90;;;;;;;39.01;20.55;99187.06;5093370;28;43001;-76
2022/05/12 12:09:53;;;;;;;1.17;0.90;;;;;;;37.76;20.59;99186.88;5090675;28;39968;-76
2022/05/12 12:12:52;;;;;;;0.90;0.70;;;;;;;36.99;21.50;99170.59;5094625;28;42555;-78
2022/05/12 12:15:58;;;;;;;0.90;0.80;;;;;;;39.22;21.24;99172.13;5090424;28;43533;-76